Bonnyrigg, United Kingdom
Current Conditions -  °F | °C
As of 10:20 AM on Saturday 20 Dec 2014 (Local Time) from EGPH Reporting Station
Few Clouds Few Clouds  
Wind Chill: 36°   Ceiling: Unl
Heat Index: 43°   Visibility: 6mi
Dew Point: 34°   Wind: 13mph
Humidity: 70%   Direction: 280°W
Pressure: 30"   Gusts: NA
Location:  55.87°N, 3.11°W
Report Text: EGPH 201020Z 28011KT 9999 FEW022 06/01 Q1016
Loading
Personal Weather Stations






























Interactive Weather Map New forecast layout! Learn more

10-Day Weather Forecast

Advertisements
Track Severe Weather on mobile